createdAt,value
2023-02-22T00:00:19.995Z,48.13
2023-02-22T00:03:04.830Z,53.38
2023-02-22T00:05:53.601Z,46.40
2023-02-22T00:08:38.906Z,44.47
2023-02-22T00:11:24.023Z,39.97
2023-02-22T00:14:09.341Z,48.45
2023-02-22T00:16:59.966Z,47.70
2023-02-22T00:19:44.987Z,51.30
2023-02-22T00:22:30.072Z,51.45
2023-02-22T00:25:19.503Z,54.90
2023-02-22T00:28:05.093Z,56.60
2023-02-22T00:30:51.445Z,52.80
2023-02-22T00:33:39.422Z,51.92
2023-02-22T00:36:24.880Z,46.85
2023-02-22T00:39:10.076Z,50.83
2023-02-22T00:41:54.985Z,46.47
2023-02-22T00:44:40.514Z,48.28
2023-02-22T00:47:27.102Z,49.97
2023-02-22T00:50:13.275Z,48.65
2023-02-22T00:53:00.426Z,44.85
2023-02-22T00:55:45.362Z,46.50
2023-02-22T00:58:30.592Z,44.72
2023-02-22T01:01:15.846Z,41.03
2023-02-22T01:04:01.096Z,42.90
2023-02-22T01:06:46.388Z,44.65
2023-02-22T01:09:31.399Z,41.40
2023-02-22T01:12:16.763Z,40.28
2023-02-22T01:15:06.330Z,40.90
2023-02-22T01:17:53.942Z,46.03
2023-02-22T01:20:39.458Z,47.78
2023-02-22T01:23:24.744Z,44.15
2023-02-22T01:26:10.428Z,46.78
2023-02-22T01:28:55.683Z,42.90
2023-02-22T01:31:44.160Z,46.65
2023-02-22T01:34:30.221Z,47.53
2023-02-22T01:37:15.143Z,44.33
2023-02-22T01:40:00.647Z,51.67
2023-02-22T01:42:49.192Z,43.78
2023-02-22T01:45:34.303Z,49.97
2023-02-22T01:48:25.205Z,47.90
2023-02-22T01:51:10.894Z,45.50
2023-02-22T01:54:24.445Z,49.70
2023-02-22T01:57:14.810Z,52.13
2023-02-22T02:00:10.072Z,50.38
2023-02-22T02:03:06.436Z,49.85
2023-02-22T02:05:53.077Z,54.92
2023-02-22T02:08:51.741Z,49.35
2023-02-22T02:11:40.523Z,56.35
2023-02-22T02:14:26.610Z,57.03
2023-02-22T02:17:15.473Z,54.72
2023-02-22T02:20:13.268Z,52.33
2023-02-22T02:23:01.247Z,50.00
2023-02-22T02:26:03.869Z,51.83
2023-02-22T02:29:23.150Z,56.15
2023-02-22T02:32:30.123Z,51.42
2023-02-22T02:35:29.428Z,51.53
2023-02-22T02:38:36.081Z,53.33
2023-02-22T02:41:33.625Z,54.30
2023-02-22T02:44:28.702Z,56.28
2023-02-22T02:47:37.138Z,55.85
2023-02-22T02:50:31.530Z,57.20
2023-02-22T02:53:22.040Z,57.70
2023-02-22T02:56:07.676Z,55.83
2023-02-22T02:58:53.799Z,55.60
2023-02-22T03:01:54.484Z,55.22
2023-02-22T03:04:59.986Z,53.00
2023-02-22T03:07:57.076Z,58.70
2023-02-22T03:10:55.503Z,60.75
2023-02-22T03:13:50.823Z,52.80
2023-02-22T03:17:16.180Z,54.03
2023-02-22T03:20:09.702Z,52.65
2023-02-22T03:23:04.602Z,54.35
2023-02-22T03:26:04.709Z,52.28
2023-02-22T03:28:54.006Z,50.67
2023-02-22T03:31:45.415Z,52.03
2023-02-22T03:34:38.660Z,49.75
2023-02-22T03:37:29.295Z,54.67
2023-02-22T03:40:27.187Z,49.05
2023-02-22T03:43:25.036Z,49.63
2023-02-22T03:46:12.245Z,53.47
2023-02-22T03:49:12.098Z,56.47
2023-02-22T03:51:59.378Z,51.35
2023-02-22T03:54:44.675Z,50.25
2023-02-22T03:57:35.441Z,53.60
2023-02-22T04:00:24.648Z,49.40
2023-02-22T04:03:09.608Z,50.60
2023-02-22T04:05:55.018Z,53.88
2023-02-22T04:08:39.923Z,55.17
2023-02-22T04:11:25.342Z,49.92
2023-02-22T04:14:10.697Z,54.58
2023-02-22T04:16:56.089Z,54.00
2023-02-22T04:19:41.466Z,53.67
2023-02-22T04:22:26.651Z,46.97
2023-02-22T04:25:11.913Z,52.57
2023-02-22T04:27:56.783Z,52.40
2023-02-22T04:30:43.927Z,53.70
2023-02-22T04:33:29.553Z,51.88
2023-02-22T04:36:16.104Z,53.80
2023-02-22T04:39:01.630Z,54.83
2023-02-22T04:41:47.559Z,50.65
2023-02-22T04:44:32.784Z,52.13
2023-02-22T04:47:18.149Z,52.58
2023-02-22T04:50:05.897Z,55.13
2023-02-22T04:52:50.833Z,63.92
2023-02-22T04:55:36.208Z,59.42
2023-02-22T04:58:21.957Z,64.15
2023-02-22T05:01:08.200Z,64.22
2023-02-22T05:03:53.432Z,59.22
2023-02-22T05:06:38.518Z,61.15
2023-02-22T05:09:24.099Z,59.67
2023-02-22T05:12:09.122Z,58.55
2023-02-22T05:14:54.640Z,60.40
2023-02-22T05:17:39.692Z,57.55
2023-02-22T05:20:27.977Z,63.70
2023-02-22T05:23:13.083Z,63.95
2023-02-22T05:25:58.790Z,67.30
2023-02-22T05:28:43.789Z,67.90
2023-02-22T05:31:28.970Z,63.03
2023-02-22T05:34:15.246Z,64.28
2023-02-22T05:37:00.754Z,59.45
2023-02-22T05:39:46.540Z,60.22
2023-02-22T05:42:31.667Z,55.05
2023-02-22T05:45:19.205Z,63.88
2023-02-22T05:48:04.581Z,55.88
2023-02-22T05:50:50.008Z,61.88
2023-02-22T05:53:35.525Z,59.58
2023-02-22T05:56:25.304Z,58.47
2023-02-22T05:59:10.305Z,62.33
2023-02-22T06:01:55.579Z,57.35
2023-02-22T06:04:40.543Z,56.55
2023-02-22T06:07:25.719Z,61.50
2023-02-22T06:10:20.138Z,63.66
2023-02-22T06:13:05.922Z,58.00
2023-02-22T06:15:51.197Z,61.72
2023-02-22T06:18:36.172Z,61.97
2023-02-22T06:21:21.387Z,58.50
2023-02-22T06:24:06.884Z,60.10
2023-02-22T06:26:56.995Z,58.40
2023-02-22T06:29:46.598Z,61.70
2023-02-22T06:32:31.749Z,58.45
2023-02-22T06:35:17.216Z,57.80
2023-02-22T06:38:02.348Z,59.00
2023-02-22T06:40:47.567Z,58.70
2023-02-22T06:43:32.722Z,58.58
2023-02-22T06:46:19.503Z,62.85
2023-02-22T06:49:05.280Z,63.35
2023-02-22T06:51:50.765Z,57.85
2023-02-22T06:54:37.105Z,59.90
2023-02-22T06:57:22.339Z,55.17
2023-02-22T07:00:08.047Z,57.83
2023-02-22T07:02:55.333Z,58.83
2023-02-22T07:05:40.430Z,56.00
2023-02-22T07:08:25.328Z,54.22
2023-02-22T07:11:10.208Z,62.88
2023-02-22T07:13:55.514Z,56.15
2023-02-22T07:16:40.488Z,54.83
2023-02-22T07:19:25.861Z,61.67
2023-02-22T07:22:11.034Z,64.75
2023-02-22T07:24:56.382Z,56.97
2023-02-22T07:27:42.298Z,61.35
2023-02-22T07:30:33.974Z,63.90
2023-02-22T07:33:19.122Z,79.70
2023-02-22T07:36:06.110Z,74.85
2023-02-22T07:38:51.365Z,85.45
2023-02-22T07:41:36.582Z,71.40
2023-02-22T07:44:21.863Z,67.95
2023-02-22T07:47:06.875Z,66.10
2023-02-22T07:49:52.252Z,78.13
2023-02-22T07:52:37.136Z,67.97
2023-02-22T07:55:24.974Z,65.43
2023-02-22T07:58:15.034Z,65.78
2023-02-22T08:03:47.678Z,63.47
2023-02-22T08:06:33.105Z,63.88
2023-02-22T08:09:18.314Z,68.28
2023-02-22T08:12:03.805Z,72.35
2023-02-22T08:14:48.920Z,67.60
2023-02-22T08:17:34.229Z,69.40
2023-02-22T08:20:19.704Z,69.70
2023-02-22T08:23:06.449Z,75.50
2023-02-22T08:25:51.686Z,65.93
2023-02-22T08:28:36.918Z,71.00
2023-02-22T08:31:22.120Z,66.53
2023-02-22T08:34:07.563Z,72.75
2023-02-22T08:36:52.645Z,70.43
2023-02-22T08:39:38.067Z,69.30
2023-02-22T08:42:23.928Z,69.55
2023-02-22T08:45:09.963Z,73.07
2023-02-22T08:47:55.214Z,68.30
2023-02-22T08:50:41.887Z,77.80
2023-02-22T08:53:26.785Z,70.60
2023-02-22T08:56:11.964Z,69.53
2023-02-22T08:58:58.572Z,77.60
2023-02-22T09:01:43.870Z,71.50
2023-02-22T09:04:28.900Z,66.75
2023-02-22T09:07:14.290Z,70.90
2023-02-22T09:09:59.513Z,74.70
2023-02-22T09:12:44.728Z,65.33
2023-02-22T09:15:30.661Z,63.40
2023-02-22T09:18:18.176Z,63.97
2023-02-22T09:21:05.363Z,69.38
2023-02-22T09:23:50.711Z,63.10
2023-02-22T09:26:39.418Z,68.22
2023-02-22T09:29:27.011Z,70.05
2023-02-22T09:32:12.161Z,68.55
2023-02-22T09:34:57.540Z,71.93
2023-02-22T09:37:45.050Z,67.95
2023-02-22T09:40:32.759Z,62.92
2023-02-22T09:43:32.709Z,53.88
2023-02-22T09:46:34.706Z,58.10
2023-02-22T09:49:22.623Z,54.72
2023-02-22T09:52:18.823Z,35.75
2023-02-22T09:55:36.209Z,35.15
2023-02-22T09:58:35.488Z,33.08
2023-02-22T10:01:49.703Z,34.10
2023-02-22T10:04:48.270Z,39.13
2023-02-22T10:07:39.274Z,36.53
2023-02-22T10:10:33.740Z,31.55
2023-02-22T10:13:52.105Z,34.10
2023-02-22T10:17:06.548Z,35.28
2023-02-22T10:19:56.757Z,38.05
2023-02-22T10:23:05.018Z,34.33
2023-02-22T10:25:57.377Z,35.15
2023-02-22T10:29:07.159Z,37.67
2023-02-22T10:31:58.367Z,40.38
2023-02-22T10:34:49.404Z,41.63
2023-02-22T10:37:35.387Z,38.88
2023-02-22T10:40:32.078Z,39.83
2023-02-22T10:43:17.254Z,40.92
2023-02-22T10:46:06.025Z,38.58
2023-02-22T10:48:54.606Z,37.47
2023-02-22T10:51:39.607Z,40.15
2023-02-22T10:54:30.452Z,38.88
2023-02-22T10:57:21.070Z,36.33
2023-02-22T11:00:26.276Z,34.80
2023-02-22T11:03:19.471Z,34.63
2023-02-22T11:06:19.902Z,37.38
2023-02-22T11:09:10.400Z,38.25
2023-02-22T11:12:17.172Z,36.53
2023-02-22T11:15:17.462Z,38.03
2023-02-22T11:20:47.576Z,30.27
2023-02-22T11:23:33.102Z,31.27
2023-02-22T11:26:20.703Z,32.13
2023-02-22T11:29:12.197Z,33.78
2023-02-22T11:31:57.586Z,31.05
2023-02-22T11:34:42.936Z,31.40
2023-02-22T11:37:33.535Z,31.08
2023-02-22T11:40:22.652Z,31.00
2023-02-22T11:43:12.216Z,29.08
2023-02-22T11:46:08.421Z,31.33
2023-02-22T11:48:56.506Z,26.67
2023-02-22T11:52:03.311Z,22.70
2023-02-22T11:55:32.706Z,24.15
2023-02-22T11:58:39.732Z,25.45
2023-02-22T12:01:52.005Z,24.52
2023-02-22T12:05:09.263Z,22.55
2023-02-22T12:08:19.189Z,23.88
2023-02-22T12:11:34.652Z,20.80
2023-02-22T12:14:47.270Z,22.45
2023-02-22T12:18:00.086Z,20.90
2023-02-22T12:21:07.691Z,19.98
2023-02-22T12:24:08.267Z,17.92
2023-02-22T12:27:09.706Z,14.57
2023-02-22T12:29:59.799Z,17.70
2023-02-22T12:32:51.518Z,19.17
2023-02-22T12:35:46.145Z,16.48
2023-02-22T12:38:44.459Z,15.23
2023-02-22T12:41:54.457Z,14.85
2023-02-22T12:44:43.594Z,17.30
2023-02-22T12:47:52.684Z,15.75
2023-02-22T12:50:38.129Z,14.68
2023-02-22T12:53:31.269Z,13.88
2023-02-22T12:56:34.199Z,15.45
2023-02-22T12:59:33.803Z,15.90
2023-02-22T13:02:21.936Z,17.38
2023-02-22T13:05:13.348Z,15.13
2023-02-22T13:08:21.644Z,16.27
2023-02-22T13:11:09.890Z,18.08
2023-02-22T13:14:13.894Z,17.15
2023-02-22T13:17:21.077Z,16.52
2023-02-22T13:20:18.618Z,14.63
2023-02-22T13:23:07.469Z,14.60
2023-02-22T13:26:13.795Z,14.50
2023-02-22T13:29:31.174Z,16.33
2023-02-22T13:32:31.434Z,18.75
2023-02-22T13:36:06.903Z,17.00
2023-02-22T13:39:09.037Z,16.13
2023-02-22T13:42:11.268Z,17.55
2023-02-22T13:45:36.759Z,17.65
2023-02-22T13:48:39.073Z,16.83
2023-02-22T13:51:39.071Z,19.33
2023-02-22T13:54:36.237Z,19.88
2023-02-22T13:57:29.424Z,19.95
2023-02-22T14:00:14.565Z,18.80
2023-02-22T14:03:14.898Z,18.73
2023-02-22T14:06:01.225Z,16.58
2023-02-22T14:08:46.389Z,18.13
2023-02-22T14:11:31.610Z,16.98
2023-02-22T14:14:18.318Z,17.48
2023-02-22T14:17:22.818Z,19.08
2023-02-22T14:20:17.261Z,13.95
2023-02-22T14:23:35.325Z,16.42
2023-02-22T14:26:26.861Z,21.55
2023-02-22T14:29:19.368Z,15.60
2023-02-22T14:32:11.027Z,24.33
2023-02-22T14:35:06.339Z,15.57
2023-02-22T14:37:57.845Z,20.88
2023-02-22T14:40:48.364Z,16.02
2023-02-22T14:43:36.688Z,15.90
2023-02-22T14:46:26.796Z,14.77
2023-02-22T14:49:18.947Z,18.50
2023-02-22T14:52:19.939Z,17.60
2023-02-22T14:55:21.612Z,16.20
2023-02-22T14:58:19.206Z,15.02
2023-02-22T15:01:27.266Z,25.60
2023-02-22T15:04:21.805Z,16.00
2023-02-22T15:07:27.402Z,16.45
2023-02-22T15:10:22.332Z,14.05
2023-02-22T15:13:24.818Z,15.90
2023-02-22T15:16:14.154Z,20.55
2023-02-22T15:19:04.120Z,11.95
2023-02-22T15:21:50.088Z,11.43
2023-02-22T15:24:37.776Z,14.55
2023-02-22T15:27:23.146Z,12.15
2023-02-22T15:30:19.408Z,13.73
2023-02-22T15:33:16.882Z,13.65
2023-02-22T15:36:02.134Z,15.38
2023-02-22T15:38:52.305Z,14.63
2023-02-22T15:41:37.565Z,14.85
2023-02-22T15:44:24.277Z,14.63
2023-02-22T15:47:23.486Z,13.93
2023-02-22T15:50:30.532Z,19.87
2023-02-22T15:53:30.164Z,13.65
2023-02-22T15:56:18.409Z,14.13
2023-02-22T15:59:13.144Z,14.13
2023-02-22T16:01:59.360Z,11.98
2023-02-22T16:04:51.418Z,13.25
2023-02-22T16:07:48.739Z,12.60
2023-02-22T16:10:33.968Z,14.77
2023-02-22T16:13:31.666Z,11.30
2023-02-22T16:16:17.269Z,13.02
2023-02-22T16:19:26.709Z,12.70
2023-02-22T16:22:35.975Z,11.95
2023-02-22T16:25:25.173Z,11.43
2023-02-22T16:28:30.826Z,10.45
2023-02-22T16:31:16.569Z,12.07
2023-02-22T16:34:03.969Z,13.15
2023-02-22T16:36:53.331Z,11.73
2023-02-22T16:39:39.799Z,16.35
2023-02-22T16:42:25.928Z,12.38
2023-02-22T16:45:16.055Z,12.45
2023-02-22T16:48:04.807Z,12.25
2023-02-22T16:50:51.732Z,11.93
2023-02-22T16:53:37.279Z,13.13
2023-02-22T16:56:31.039Z,14.15
2023-02-22T16:59:17.178Z,13.10
2023-02-22T17:02:07.439Z,14.88
2023-02-22T17:04:52.533Z,18.15
2023-02-22T17:07:40.503Z,18.30
2023-02-22T17:10:26.836Z,14.40
2023-02-22T17:13:22.424Z,16.60
2023-02-22T17:16:14.535Z,21.25
2023-02-22T17:18:59.756Z,20.90
2023-02-22T17:21:45.646Z,20.95
2023-02-22T17:24:30.671Z,25.92
2023-02-22T17:27:15.832Z,21.77
2023-02-22T17:30:00.793Z,21.08
2023-02-22T17:32:45.826Z,25.13
2023-02-22T17:35:36.517Z,20.85
2023-02-22T17:38:22.876Z,18.67
2023-02-22T17:41:08.308Z,19.02
2023-02-22T17:43:54.370Z,21.15
2023-02-22T17:46:42.418Z,19.98
2023-02-22T17:49:28.397Z,20.25
2023-02-22T17:52:15.677Z,20.85
2023-02-22T17:55:00.640Z,20.50
2023-02-22T17:57:46.765Z,19.33
2023-02-22T18:00:36.296Z,21.60
2023-02-22T18:03:25.285Z,17.95
2023-02-22T18:06:22.622Z,19.42
2023-02-22T18:09:17.763Z,21.27
2023-02-22T18:12:03.344Z,22.25
2023-02-22T18:14:48.654Z,19.90
2023-02-22T18:17:33.859Z,20.25
2023-02-22T18:20:30.925Z,19.48
2023-02-22T18:23:22.214Z,20.90
2023-02-22T18:26:11.975Z,21.55
2023-02-22T18:28:57.253Z,22.88
2023-02-22T18:31:45.358Z,21.10
2023-02-22T18:34:30.365Z,22.08
2023-02-22T18:37:20.443Z,22.20
2023-02-22T18:40:10.423Z,21.40
2023-02-22T18:42:55.767Z,21.17
2023-02-22T18:45:40.668Z,20.77
2023-02-22T18:48:25.591Z,20.70
2023-02-22T18:51:12.594Z,20.17
2023-02-22T18:54:01.207Z,21.15
2023-02-22T18:56:46.115Z,21.85
2023-02-22T18:59:31.034Z,25.23
2023-02-22T19:02:21.328Z,24.13
2023-02-22T19:05:06.570Z,24.75
2023-02-22T19:07:54.792Z,25.70
2023-02-22T19:10:39.928Z,23.70
2023-02-22T19:13:25.273Z,24.02
2023-02-22T19:16:10.559Z,28.48
2023-02-22T19:18:57.661Z,27.00
2023-02-22T19:21:42.873Z,27.45
2023-02-22T19:24:28.706Z,25.58
2023-02-22T19:27:14.181Z,30.45
2023-02-22T19:29:59.196Z,22.80
2023-02-22T19:32:47.421Z,25.90
2023-02-22T19:35:33.340Z,24.83
2023-02-22T19:38:18.284Z,28.25
2023-02-22T19:41:12.420Z,23.73
2023-02-22T19:43:58.485Z,25.08
2023-02-22T19:46:44.263Z,29.60
2023-02-22T19:49:30.151Z,27.48
2023-02-22T19:52:15.848Z,28.42
2023-02-22T19:55:00.800Z,28.27
2023-02-22T19:57:50.179Z,29.15
2023-02-22T20:00:36.579Z,27.05
2023-02-22T20:03:25.701Z,28.00
2023-02-22T20:06:11.666Z,33.38
2023-02-22T20:08:57.107Z,27.50
2023-02-22T20:11:42.221Z,28.73
2023-02-22T20:14:28.552Z,29.50
2023-02-22T20:17:13.977Z,27.50
2023-02-22T20:19:59.004Z,28.27
2023-02-22T20:22:44.668Z,33.50
2023-02-22T20:25:29.882Z,29.30
2023-02-22T20:28:15.085Z,36.63
2023-02-22T20:31:01.448Z,31.50
2023-02-22T20:33:49.227Z,35.15
2023-02-22T20:36:37.128Z,32.75
2023-02-22T20:39:22.160Z,34.15
2023-02-22T20:42:08.682Z,36.60
2023-02-22T20:44:54.508Z,33.83
2023-02-22T20:47:39.751Z,28.83
2023-02-22T20:50:24.977Z,31.42
2023-02-22T20:53:10.036Z,33.35
2023-02-22T20:55:57.450Z,35.15
2023-02-22T20:58:43.285Z,36.03
2023-02-22T21:01:29.463Z,38.60
2023-02-22T21:04:15.086Z,35.65
2023-02-22T21:07:03.562Z,33.72
2023-02-22T21:09:49.614Z,33.88
2023-02-22T21:12:35.146Z,34.80
2023-02-22T21:15:20.045Z,35.03
2023-02-22T21:18:05.347Z,32.25
2023-02-22T21:20:50.722Z,32.90
2023-02-22T21:23:37.375Z,33.72
2023-02-22T21:26:24.785Z,37.53
2023-02-22T21:29:09.851Z,35.25
2023-02-22T21:31:56.013Z,38.85
2023-02-22T21:34:42.024Z,40.50
2023-02-22T21:37:27.731Z,43.92
2023-02-22T21:40:19.083Z,42.60
2023-02-22T21:43:04.187Z,42.13
2023-02-22T21:45:49.838Z,38.53
2023-02-22T21:48:35.325Z,38.55
2023-02-22T21:51:25.331Z,38.58
2023-02-22T21:54:12.282Z,44.00
2023-02-22T21:56:57.482Z,44.95
2023-02-22T21:59:42.339Z,38.85
2023-02-22T22:02:29.154Z,39.08
2023-02-22T22:05:23.245Z,37.55
2023-02-22T22:08:08.381Z,35.45
2023-02-22T22:10:55.359Z,35.50
2023-02-22T22:13:42.002Z,36.30
2023-02-22T22:16:29.763Z,35.30
2023-02-22T22:19:15.315Z,35.58
2023-02-22T22:22:00.854Z,36.10
2023-02-22T22:24:46.072Z,33.90
2023-02-22T22:27:30.998Z,36.85
2023-02-22T22:30:16.929Z,44.88
2023-02-22T22:33:01.710Z,38.10
2023-02-22T22:35:46.842Z,34.08
2023-02-22T22:38:32.964Z,33.78
2023-02-22T22:41:20.844Z,34.30
2023-02-22T22:44:09.387Z,29.42
2023-02-22T22:46:54.893Z,28.67
2023-02-22T22:49:40.444Z,27.23
2023-02-22T22:52:31.205Z,28.13
2023-02-22T22:55:16.595Z,34.67
2023-02-22T22:58:02.008Z,30.85
2023-02-22T23:00:47.648Z,31.45
2023-02-22T23:03:38.700Z,21.15
2023-02-22T23:06:27.428Z,20.67
2023-02-22T23:09:19.014Z,20.30
2023-02-22T23:12:17.687Z,26.83
2023-02-22T23:15:03.723Z,19.73
2023-02-22T23:17:48.940Z,22.08
2023-02-22T23:20:38.917Z,16.85
2023-02-22T23:26:18.701Z,14.70
2023-02-22T23:29:04.517Z,16.17
2023-02-22T23:31:50.500Z,16.90
2023-02-22T23:34:37.164Z,18.90
2023-02-22T23:37:21.947Z,17.00
2023-02-22T23:40:18.813Z,16.48
2023-02-22T23:43:05.622Z,18.02
2023-02-22T23:45:50.600Z,13.77
2023-02-22T23:48:35.892Z,16.20
2023-02-22T23:51:25.835Z,14.65
2023-02-22T23:54:14.126Z,14.40
2023-02-22T23:57:02.385Z,15.38
2023-02-22T23:59:51.346Z,15.27
